Time;durP1;ratioP1;P1;durP2;ratioP2;P2;SDS_P1;SDS_P2;PMS_P1;PMS_P2;Temp;Humidity;BMP_temperature;BMP_pressure;BME280_temperature;BME280_humidity;BME280_pressure;Samples;Min_cycle;Max_cycle;Signal;HPM_P1;HPM_P2
2023/10/27 00:01:29;;;;;;;1310.67;416.60;;;9.80;99.90;;;;;;4937328;29;20283;-83
2023/10/27 00:04:46;;;;;;;1384.80;502.70;;;9.80;99.90;;;;;;4920044;29;20374;-84
2023/10/27 00:08:09;;;;;;;1381.33;499.03;;;9.80;99.90;;;;;;4944200;29;20764;-83
2023/10/27 00:18:47;;;;;;;;;;;;;;;;;;;;;
2023/10/27 00:22:30;;;;;;;;;;;;;;;;;;;;;
2023/10/27 00:26:06;;;;;;;1409.53;506.03;;;9.80;99.90;;;;;;4974472;28;20314;-83
2023/10/27 00:29:25;;;;;;;1409.43;502.87;;;9.80;99.90;;;;;;4987611;28;20372;-84
2023/10/27 00:32:28;;;;;;;1340.13;419.63;;;9.80;99.90;;;;;;5042739;28;20118;-84
2023/10/27 00:35:57;;;;;;;;;;;;;;;;;;;;;
2023/10/27 00:43:12;;;;;;;1347.00;423.47;;;9.80;99.90;;;;;;5073561;28;20039;-84
2023/10/27 00:46:39;;;;;;;1431.05;509.50;;;9.80;99.90;;;;;;5072380;28;20283;-83
2023/10/27 00:50:12;;;;;;;1433.60;506.67;;;9.80;99.90;;;;;;5072564;28;20048;-84
2023/10/27 00:53:32;;;;;;;1358.33;422.83;;;9.80;99.90;;;;;;5032326;28;20288;-84
2023/10/27 00:56:53;;;;;;;1438.23;505.07;;;9.90;99.90;;;;;;5008726;28;20284;-83
2023/10/27 01:00:20;;;;;;;;;;;;;;;;;;;;;
2023/10/27 01:03:49;;;;;;;;;;;;;;;;;;;;;
2023/10/27 01:07:21;;;;;;;;;;;;;;;;;;;;;
2023/10/27 01:10:03;;;;;;;1444.63;500.37;;;9.70;99.90;;;;;;5011967;28;20392;-83
2023/10/27 01:13:14;;;;;;;;;;;;;;;;;;;;;
2023/10/27 01:16:50;;;;;;;;;;;;;;;;;;;;;
2023/10/27 01:20:27;;;;;;;1456.67;504.53;;;9.70;99.90;;;;;;5012457;28;20784;-84
2023/10/27 01:38:14;;;;;;;1360.67;410.17;;;9.70;99.90;;;;;;5019560;28;20304;-83
2023/10/27 01:41:43;;;;;;;1354.23;405.77;;;9.70;99.90;;;;;;5035827;28;20284;-83
2023/10/27 01:45:09;;;;;;;1353.40;408.03;;;9.70;99.90;;;;;;5051084;28;20763;-84
2023/10/27 01:48:38;;;;;;;1439.20;499.43;;;9.70;99.90;;;;;;5052079;28;20282;-84
2023/10/27 01:52:22;;;;;;;;;;;;;;;;;;;;;
2023/10/27 02:06:51;;;;;;;1373.87;418.87;;;9.70;99.90;;;;;;5070695;28;20364;-83
2023/10/27 02:10:32;;;;;;;1374.53;417.67;;;9.70;99.90;;;;;;5071074;28;20290;-84
2023/10/27 02:13:53;;;;;;;1473.43;501.43;;;9.70;99.90;;;;;;5068445;28;20302;-84
2023/10/27 02:17:19;;;;;;;1470.10;499.07;;;9.70;99.90;;;;;;5036603;28;20333;-84
2023/10/27 02:21:04;;;;;;;;;;;;;;;;;;;;;
2023/10/27 02:24:25;;;;;;;1392.20;414.73;;;9.60;99.90;;;;;;5050982;28;20803;-83
2023/10/27 02:35:15;;;;;;;1392.90;406.80;;;9.60;99.90;;;;;;5064887;28;20671;-83
2023/10/27 02:38:51;;;;;;;1387.57;409.03;;;9.60;99.90;;;;;;5050838;28;20264;-84
2023/10/27 02:42:17;;;;;;;;;;;;;;;;;;;;;
2023/10/27 02:45:46;;;;;;;1387.90;421.07;;;9.60;99.90;;;;;;5027232;28;20057;-83
2023/10/27 02:49:05;;;;;;;1391.70;413.73;;;9.60;99.90;;;;;;5011098;28;20297;-83
2023/10/27 02:52:47;;;;;;;1476.97;494.87;;;9.60;99.90;;;;;;4952375;29;20303;-83
2023/10/27 03:03:37;;;;;;;;;;;;;;;;;;;;;
2023/10/27 03:07:14;;;;;;;;;;;;;;;;;;;;;
2023/10/27 03:10:50;;;;;;;1470.25;496.50;;;9.60;99.90;;;;;;4971634;28;20156;-84
2023/10/27 03:14:02;;;;;;;1467.20;494.57;;;10.20;99.90;;;;;;4990011;28;20054;-83
2023/10/27 03:17:15;;;;;;;;;;;;;;;;;;;;;
2023/10/27 03:20:35;;;;;;;1370.73;403.87;;;9.60;99.90;;;;;;4985857;28;20766;-83
2023/10/27 03:27:42;;;;;;;1371.87;401.57;;;9.60;99.90;;;;;;5002359;28;20781;-84
2023/10/27 03:31:04;;;;;;;1455.43;494.40;;;9.60;99.90;;;;;;5058152;28;20639;-83
2023/10/27 03:34:28;;;;;;;1459.33;497.53;;;9.60;99.90;;;;;;5056732;28;20333;-84
2023/10/27 03:37:59;;;;;;;1364.65;404.42;;;9.60;99.90;;;;;;5060276;28;20779;-84
2023/10/27 03:41:40;;;;;;;1361.27;401.77;;;9.90;99.90;;;;;;5012530;28;20104;-84
2023/10/27 03:45:15;;;;;;;;;;;;;;;;;;;;;
2023/10/27 04:07:09;;;;;;;1429.90;498.47;;;9.60;99.90;;;;;;5012870;28;20295;-84
2023/10/27 04:10:17;;;;;;;1441.53;495.63;;;9.50;99.90;;;;;;5025632;28;20375;-84
2023/10/27 04:13:37;;;;;;;1355.87;402.73;;;9.50;99.90;;;;;;4994202;28;20368;-84
2023/10/27 04:16:50;;;;;;;1358.40;405.33;;;9.50;99.90;;;;;;4972779;28;20360;-84
2023/10/27 04:20:00;;;;;;;1358.70;403.10;;;9.50;99.90;;;;;;5012368;28;20289;-84
2023/10/27 04:23:17;;;;;;;1450.67;495.20;;;9.40;99.90;;;;;;4977229;28;20368;-84
2023/10/27 04:33:47;;;;;;;1354.43;399.30;;;9.40;99.90;;;;;;4996337;28;20292;-83
2023/10/27 04:37:00;;;;;;;;;;;;;;;;;;;;;
2023/10/27 04:40:32;;;;;;;;;;;;;;;;;;;;;
2023/10/27 04:43:58;;;;;;;;;;;;;;;;;;;;;
2023/10/27 04:47:19;;;;;;;1352.82;396.95;;;9.40;99.90;;;;;;5035063;28;20341;-85
2023/10/27 04:50:35;;;;;;;1443.77;495.10;;;9.40;99.90;;;;;;5048230;28;20051;-84
2023/10/27 04:54:05;;;;;;;1360.07;400.93;;;9.40;99.90;;;;;;5029522;28;20372;-83
2023/10/27 04:56:35;;;;;;;1356.83;402.90;;;9.30;99.90;;;;;;4993067;28;20304;-84
2023/10/27 04:59:58;;;;;;;;;;;;;;;;;;;;;
2023/10/27 05:03:22;;;;;;;1454.13;497.67;;;9.30;99.90;;;;;;5008661;28;20292;-84
2023/10/27 05:06:47;;;;;;;1455.90;494.83;;;9.30;99.90;;;;;;4991888;28;20344;-84
2023/10/27 05:10:10;;;;;;;1456.57;494.27;;;9.30;99.90;;;;;;5009914;28;20287;-84
2023/10/27 05:13:36;;;;;;;1457.53;494.90;;;9.40;99.90;;;;;;5010047;28;20280;-84
2023/10/27 05:20:37;;;;;;;;;;;;;;;;;;;;;
2023/10/27 05:23:56;;;;;;;;;;;;;;;;;;;;;
2023/10/27 05:27:18;;;;;;;1369.40;399.88;;;9.40;99.90;;;;;;5052735;28;20299;-83
2023/10/27 05:30:43;;;;;;;1464.20;495.20;;;9.50;99.90;;;;;;5009227;28;20080;-84
2023/10/27 05:34:15;;;;;;;1372.40;404.83;;;9.50;99.90;;;;;;5010020;28;20293;-84
2023/10/27 05:37:41;;;;;;;1455.20;490.87;;;9.40;99.90;;;;;;4993825;28;20057;-84
2023/10/27 05:48:31;;;;;;;1365.90;397.70;;;9.50;99.90;;;;;;5011519;28;20838;-84
2023/10/27 05:51:40;;;;;;;1372.77;401.53;;;9.50;99.90;;;;;;5011186;28;20859;-84
2023/10/27 05:55:04;;;;;;;1464.70;494.90;;;9.50;99.90;;;;;;5010506;28;20705;-84
2023/10/27 05:57:41;;;;;;;1366.80;398.93;;;9.40;99.90;;;;;;4995038;28;20300;-83
2023/10/27 06:00:12;;;;;;;1371.07;401.50;;;9.50;99.90;;;;;;5009482;28;20297;-83
2023/10/27 06:03:22;;;;;;;1462.70;495.17;;;9.50;99.90;;;;;;5010242;28;20383;-81
2023/10/27 06:10:53;;;;;;;1368.70;398.63;;;9.50;99.90;;;;;;5073235;28;20283;-83
2023/10/27 06:14:08;;;;;;;1465.60;498.23;;;9.40;99.90;;;;;;5073388;28;20283;-85
2023/10/27 06:17:29;;;;;;;;;;;;;;;;;;;;;
2023/10/27 06:20:56;;;;;;;;;;;;;;;;;;;;;
2023/10/27 06:24:04;;;;;;;1371.77;405.27;;;9.50;99.90;;;;;;5053714;28;20846;-86
2023/10/27 06:30:59;;;;;;;1366.13;400.20;;;9.70;99.90;;;;;;5072299;28;20871;-85
2023/10/27 06:34:26;;;;;;;1458.60;497.23;;;9.60;99.90;;;;;;5072299;28;20279;-84
2023/10/27 06:37:30;;;;;;;1367.57;398.13;;;9.50;99.90;;;;;;5038906;28;20623;-85
2023/10/27 06:40:39;;;;;;;1369.80;401.57;;;9.50;99.90;;;;;;5054711;28;20295;-82
2023/10/27 06:43:53;;;;;;;1463.03;498.83;;;9.50;99.90;;;;;;5056704;28;20310;-83
2023/10/27 06:46:45;;;;;;;1368.90;407.47;;;9.50;99.90;;;;;;5052004;28;20363;-83
2023/10/27 07:12:12;;;;;;;1463.87;496.07;;;9.60;99.90;;;;;;4994915;28;20723;-84
2023/10/27 07:15:31;;;;;;;1465.10;496.30;;;9.60;99.90;;;;;;4995244;28;20336;-83
2023/10/27 07:18:49;;;;;;;1364.43;397.90;;;9.60;99.90;;;;;;4978892;28;20281;-84
2023/10/27 07:21:48;;;;;;;1369.30;402.83;;;9.60;99.90;;;;;;4994862;28;20288;-83
2023/10/27 07:24:50;;;;;;;1369.57;401.03;;;9.60;99.90;;;;;;4994576;28;20832;-85
2023/10/27 07:27:50;;;;;;;1367.27;402.47;;;9.60;99.90;;;;;;4992180;28;20368;-84
2023/10/27 07:30:57;;;;;;;1367.00;400.73;;;9.80;99.90;;;;;;5014677;28;20312;-84
2023/10/27 07:33:57;;;;;;;1454.47;493.30;;;9.70;99.90;;;;;;4997516;28;20289;-85
2023/10/27 07:36:50;;;;;;;1362.27;399.23;;;9.70;99.90;;;;;;5013875;28;20771;-85
2023/10/27 07:39:48;;;;;;;1456.33;494.20;;;9.80;99.90;;;;;;5013058;28;20614;-84
2023/10/27 07:42:58;;;;;;;1368.30;402.65;;;9.70;99.90;;;;;;5010417;28;20345;-84
2023/10/27 07:46:01;;;;;;;1375.43;406.07;;;9.80;99.90;;;;;;5013725;28;20050;-84
2023/10/27 07:49:21;;;;;;;1458.70;495.53;;;9.80;99.90;;;;;;4996486;28;20633;-85
2023/10/27 08:08:08;;;;;;;1462.80;497.08;;;9.90;99.90;;;;;;5075742;28;20265;-84
2023/10/27 08:11:01;;;;;;;1364.97;402.27;;;9.90;99.90;;;;;;5071730;28;20052;-84
2023/10/27 08:14:10;;;;;;;1372.77;404.13;;;9.90;99.90;;;;;;5077383;28;20310;-86
2023/10/27 08:17:09;;;;;;;1376.33;405.23;;;10.00;99.90;;;;;;5094540;28;20294;-85
2023/10/27 08:20:10;;;;;;;1464.27;493.30;;;10.00;99.90;;;;;;5093949;28;20327;-86
2023/10/27 08:23:11;;;;;;;1474.37;499.03;;;10.00;99.90;;;;;;5077333;28;20612;-87
2023/10/27 08:26:18;;;;;;;1374.93;407.83;;;10.00;99.90;;;;;;5093986;28;20292;-84
2023/10/27 09:01:11;;;;;;;1463.53;497.70;;;10.30;99.90;;;;;;5094940;28;20319;-85
2023/10/27 09:04:28;;;;;;;1471.90;502.07;;;10.30;99.90;;;;;;5076011;28;20278;-86
2023/10/27 09:07:30;;;;;;;1466.80;496.73;;;10.40;99.90;;;;;;5094214;28;20278;-86
2023/10/27 09:10:33;;;;;;;1377.80;405.15;;;10.50;99.90;;;;;;5094105;28;20289;-87
2023/10/27 09:13:29;;;;;;;1472.63;494.10;;;10.40;99.90;;;;;;5076903;28;20044;-88
2023/10/27 09:16:39;;;;;;;1475.30;499.67;;;10.50;99.90;;;;;;5075362;28;20278;-88
2023/10/27 09:31:14;;;;;;;1381.37;406.03;;;10.60;99.90;;;;;;4992769;28;20360;-84
2023/10/27 09:34:37;;;;;;;1381.18;402.95;;;10.60;99.90;;;;;;4915166;29;20650;-86
2023/10/27 09:37:58;;;;;;;;;;;;;;;;;;;;;
2023/10/27 09:40:52;;;;;;;1492.93;501.70;;;10.80;99.90;;;;;;4876626;29;20317;-86
2023/10/27 09:44:12;;;;;;;1496.83;503.03;;;10.70;99.90;;;;;;4893064;29;20285;-85
2023/10/27 09:47:12;;;;;;;1388.87;408.90;;;10.70;99.90;;;;;;4893623;29;20344;-84
2023/10/27 10:53:08;;;;;;;1416.00;414.17;;;11.50;99.90;;;;;;5073447;28;20780;-84
2023/10/27 10:56:20;;;;;;;1513.90;501.43;;;11.50;99.90;;;;;;5074769;28;20284;-84
2023/10/27 10:59:23;;;;;;;1412.60;412.50;;;11.40;99.90;;;;;;4991111;28;20282;-84
2023/10/27 11:02:54;;;;;;;1520.03;502.57;;;11.40;99.90;;;;;;4991494;28;20841;-84
2023/10/27 11:06:21;;;;;;;;;;;;;;;;;;;;;
2023/10/27 11:09:36;;;;;;;;;;;;;;;;;;;;;
2023/10/27 11:27:27;;;;;;;1529.07;506.20;;;11.20;99.90;;;;;;4990702;28;20316;-84
2023/10/27 11:30:29;;;;;;;1527.03;507.20;;;11.20;99.90;;;;;;4990477;28;20841;-84
2023/10/27 11:33:26;;;;;;;1524.13;504.30;;;11.10;99.90;;;;;;4990617;28;20419;-85
2023/10/27 11:36:33;;;;;;;1417.87;414.87;;;11.10;99.90;;;;;;4990813;28;20290;-87
2023/10/27 11:39:49;;;;;;;;;;;;;;;;;;;;;
2023/10/27 11:42:46;;;;;;;1415.27;416.17;;;11.10;99.90;;;;;;5055544;28;20282;-85
2023/10/27 11:45:50;;;;;;;1420.30;418.70;;;11.10;99.90;;;;;;5076551;28;20289;-84
2023/10/27 11:48:56;;;;;;;1526.57;507.10;;;11.10;99.90;;;;;;5066634;28;20275;-85
2023/10/27 11:51:50;;;;;;;1527.22;510.63;;;11.10;99.90;;;;;;5092458;28;20356;-83
2023/10/27 11:54:31;;;;;;;1525.97;505.93;;;11.10;99.90;;;;;;5094031;28;20056;-84
2023/10/27 11:57:38;;;;;;;1521.10;508.03;;;11.10;99.90;;;;;;5075647;28;20297;-83
2023/10/27 12:00:32;;;;;;;1527.33;511.23;;;11.10;99.90;;;;;;5069230;28;20399;-85
2023/10/27 12:03:52;;;;;;;;;;;;;;;;;;;;;
2023/10/27 12:14:17;;;;;;;1519.70;506.50;;;11.10;99.90;;;;;;5095068;28;20293;-85
2023/10/27 12:17:36;;;;;;;1413.53;417.77;;;11.10;99.90;;;;;;5095980;28;20289;-84
2023/10/27 12:20:35;;;;;;;1521.47;505.15;;;11.10;99.90;;;;;;5095185;28;20785;-83
2023/10/27 12:23:53;;;;;;;1511.97;506.97;;;11.10;99.90;;;;;;5093519;28;20115;-86
2023/10/27 12:27:01;;;;;;;;;;;;;;;;;;;;;
2023/10/27 12:29:52;;;;;;;1514.53;506.73;;;11.10;99.90;;;;;;5072328;28;20295;-84
2023/10/27 12:40:36;;;;;;;1517.27;507.00;;;11.10;99.90;;;;;;5078028;28;20308;-83
2023/10/27 12:43:33;;;;;;;1520.57;505.27;;;11.10;99.90;;;;;;5059483;28;20318;-83
2023/10/27 12:46:34;;;;;;;1409.33;415.97;;;11.10;99.90;;;;;;5093877;28;20059;-85
2023/10/27 12:49:31;;;;;;;1514.03;503.50;;;11.10;99.90;;;;;;5093417;28;20279;-84
2023/10/27 12:52:20;;;;;;;1414.30;420.47;;;11.10;99.90;;;;;;5075466;28;20105;-83
2023/10/27 12:55:10;;;;;;;1410.87;419.43;;;11.10;99.90;;;;;;5074315;28;20287;-83
2023/10/27 12:57:49;;;;;;;1418.10;422.97;;;11.10;99.90;;;;;;5080597;28;20302;-82
2023/10/27 13:00:29;;;;;;;1416.67;420.73;;;11.10;99.90;;;;;;5077201;28;20279;-82
2023/10/27 13:02:59;;;;;;;1414.40;437.50;;;11.00;99.90;;;;;;5070029;28;20291;-82
2023/10/27 13:05:27;;;;;;;1516.67;509.97;;;11.00;99.90;;;;;;5065153;28;20290;-85
2023/10/27 13:07:57;;;;;;;1523.07;508.27;;;11.00;99.90;;;;;;5074091;28;20488;-86
2023/10/27 13:10:24;;;;;;;1524.50;508.13;;;11.00;99.90;;;;;;5051759;28;20413;-85
2023/10/27 13:12:51;;;;;;;1522.17;508.67;;;11.10;99.90;;;;;;5061817;28;20085;-83
2023/10/27 13:15:19;;;;;;;1411.43;418.83;;;11.10;99.90;;;;;;5094903;28;20270;-84
2023/10/27 13:17:50;;;;;;;1417.87;419.97;;;11.10;99.90;;;;;;5094320;28;20340;-84
2023/10/27 13:20:17;;;;;;;1515.53;509.80;;;11.10;99.90;;;;;;5093730;28;20267;-84
2023/10/27 13:22:47;;;;;;;1405.90;420.13;;;11.10;99.90;;;;;;5059057;28;20361;-84
2023/10/27 13:25:17;;;;;;;1403.93;417.17;;;11.10;99.90;;;;;;5056519;28;20294;-84
2023/10/27 13:27:45;;;;;;;1412.10;418.70;;;11.20;99.90;;;;;;5071501;28;20294;-85
2023/10/27 13:30:14;;;;;;;1521.90;509.67;;;11.10;99.90;;;;;;5087713;28;20294;-87
2023/10/27 13:32:47;;;;;;;1519.33;506.77;;;11.10;99.90;;;;;;5073643;28;20047;-85
2023/10/27 13:35:20;;;;;;;1408.00;416.67;;;11.50;99.90;;;;;;5055129;28;20286;-85
2023/10/27 13:37:53;;;;;;;1409.33;417.50;;;11.20;99.90;;;;;;5073088;28;20082;-85
2023/10/27 13:40:20;;;;;;;1519.57;509.70;;;11.20;99.90;;;;;;5055747;28;20299;-84
2023/10/27 13:42:49;;;;;;;1514.80;507.87;;;10.80;99.90;;;;;;5055444;28;20404;-85
2023/10/27 13:45:19;;;;;;;1526.63;512.17;;;11.20;99.90;;;;;;5055380;28;20298;-86
2023/10/27 13:47:46;;;;;;;1418.67;425.47;;;11.10;99.90;;;;;;5056144;28;20130;-83
2023/10/27 13:50:14;;;;;;;1413.67;420.47;;;11.30;99.90;;;;;;5075346;28;20309;-84
2023/10/27 13:52:44;;;;;;;1411.30;423.13;;;11.20;99.90;;;;;;5080681;28;20298;-85
2023/10/27 13:55:13;;;;;;;1404.13;420.03;;;11.20;99.90;;;;;;5075081;28;20278;-85
2023/10/27 13:57:45;;;;;;;1521.03;510.53;;;11.20;99.90;;;;;;5086077;28;20334;-86
2023/10/27 14:00:21;;;;;;;1405.67;427.93;;;11.20;99.90;;;;;;5072937;28;20302;-86
2023/10/27 14:02:58;;;;;;;1413.37;427.33;;;11.10;99.90;;;;;;5074332;28;20325;-84
2023/10/27 14:05:29;;;;;;;1520.13;508.77;;;11.20;99.90;;;;;;5092786;28;20282;-85
2023/10/27 14:07:58;;;;;;;1411.90;423.20;;;11.20;99.90;;;;;;5061380;28;20279;-84
2023/10/27 14:10:29;;;;;;;1519.07;507.83;;;11.20;99.90;;;;;;5092455;28;20786;-85
2023/10/27 14:13:05;;;;;;;1515.83;508.00;;;11.20;99.90;;;;;;5074861;28;20292;-84
2023/10/27 14:15:49;;;;;;;1517.60;509.57;;;11.10;99.90;;;;;;5091773;28;20306;-84
2023/10/27 14:18:30;;;;;;;1400.17;416.47;;;11.10;99.90;;;;;;5073988;28;20301;-84
2023/10/27 14:21:03;;;;;;;1517.13;507.13;;;11.10;99.90;;;;;;5092280;28;20282;-85
2023/10/27 14:23:43;;;;;;;1409.13;413.57;;;11.10;99.90;;;;;;5091067;28;20113;-86
2023/10/27 14:26:27;;;;;;;1510.80;504.67;;;11.10;99.90;;;;;;5058674;28;20362;-86
2023/10/27 14:29:06;;;;;;;1404.47;415.23;;;11.10;99.90;;;;;;5078374;28;20512;-84
2023/10/27 14:31:39;;;;;;;1514.97;506.13;;;11.00;99.90;;;;;;5072888;28;20387;-88
2023/10/27 14:34:15;;;;;;;1504.27;509.70;;;10.90;99.90;;;;;;5039000;28;20275;-86
2023/10/27 14:36:47;;;;;;;1515.67;507.93;;;11.00;99.90;;;;;;5073110;28;20286;-88
2023/10/27 14:39:22;;;;;;;1402.80;417.73;;;11.00;99.90;;;;;;5069431;28;20046;-87
2023/10/27 14:42:04;;;;;;;1512.53;505.37;;;11.00;99.90;;;;;;5058108;28;20300;-87
2023/10/27 14:44:41;;;;;;;1398.33;414.77;;;11.00;99.90;;;;;;5092815;28;20284;-86
2023/10/27 14:47:19;;;;;;;1400.03;418.47;;;11.00;99.90;;;;;;5074988;28;20286;-89
2023/10/27 14:49:55;;;;;;;1387.70;411.33;;;11.00;99.90;;;;;;5092606;28;20638;-88
2023/10/27 14:52:37;;;;;;;1405.13;419.70;;;11.00;99.90;;;;;;5066088;28;20817;-87
2023/10/27 14:55:32;;;;;;;1395.07;414.77;;;10.90;99.90;;;;;;5054979;28;20384;-88
2023/10/27 14:58:18;;;;;;;1510.47;513.93;;;10.90;99.90;;;;;;5084644;28;20290;-86
2023/10/27 15:00:49;;;;;;;;;;;10.90;99.90;;;;;;5086245;28;20290;-90
2023/10/27 16:12:26;;;;;;;1469.07;506.73;;;10.60;99.90;;;;;;5054347;28;20312;-87
2023/10/27 16:15:08;;;;;;;1376.97;415.83;;;10.50;99.90;;;;;;5056009;28;20733;-87
2023/10/27 16:18:21;;;;;;;1372.17;418.87;;;10.50;99.90;;;;;;5030579;28;20279;-89
2023/10/27 16:21:00;;;;;;;1366.33;415.40;;;10.50;99.90;;;;;;5057149;28;20676;-86
2023/10/27 16:24:02;;;;;;;;;;;;;;;;;;;;;
2023/10/27 16:27:06;;;;;;;1366.00;417.77;;;10.50;99.90;;;;;;5058178;28;20053;-88
2023/10/27 16:56:06;;;;;;;1357.17;410.37;;;10.40;99.90;;;;;;5074143;28;20277;-85
2023/10/27 16:59:21;;;;;;;1453.43;505.47;;;10.40;99.90;;;;;;5032713;28;20777;-85
2023/10/27 17:02:47;;;;;;;;;;;;;;;;;;;;;
2023/10/27 17:06:15;;;;;;;1457.00;508.57;;;10.40;99.90;;;;;;4992488;28;20288;-86
2023/10/27 17:09:52;;;;;;;;;;;;;;;;;;;;;
2023/10/27 17:13:29;;;;;;;1346.43;415.83;;;10.40;99.90;;;;;;4993572;28;20305;-90
2023/10/27 17:20:29;;;;;;;1345.47;414.03;;;10.40;99.90;;;;;;4993006;28;20265;-87
2023/10/27 17:23:55;;;;;;;;;;;;;;;;;;;;;
2023/10/27 17:27:01;;;;;;;1438.57;505.17;;;10.10;99.90;;;;;;4991766;28;20297;-90
2023/10/27 17:30:15;;;;;;;1449.23;510.30;;;10.30;99.90;;;;;;4993369;28;20344;-87
2023/10/27 17:34:01;;;;;;;1445.40;508.23;;;10.60;99.90;;;;;;5012464;28;20634;-88
2023/10/27 17:37:31;;;;;;;1346.77;415.27;;;10.40;99.90;;;;;;4973335;28;20298;-86
2023/10/27 18:02:31;;;;;;;1328.40;415.17;;;10.20;99.90;;;;;;4927465;29;20368;-87
2023/10/27 18:06:17;;;;;;;;;;;;;;;;;;;;;
2023/10/27 18:09:44;;;;;;;1423.27;512.50;;;10.20;99.90;;;;;;4811010;29;20371;-88
2023/10/27 18:13:06;;;;;;;1318.43;415.97;;;10.20;99.90;;;;;;4896194;29;20417;-87
2023/10/27 18:20:01;;;;;;;;;;;;;;;;;;;;;
2023/10/27 18:34:19;;;;;;;1316.07;416.97;;;10.20;99.90;;;;;;4859186;29;20335;-86
2023/10/27 18:37:38;;;;;;;1316.30;412.90;;;10.20;99.90;;;;;;4841043;29;20347;-91
2023/10/27 18:41:02;;;;;;;;;;;;;;;;;;;;;
2023/10/27 18:44:42;;;;;;;1314.63;413.37;;;10.20;99.90;;;;;;4834320;29;20390;-86
2023/10/27 18:48:04;;;;;;;;;;;;;;;;;;;;;
2023/10/27 18:51:31;;;;;;;1313.90;416.37;;;10.80;99.90;;;;;;4849553;29;20351;-89
2023/10/27 19:02:10;;;;;;;1399.63;509.27;;;10.30;99.90;;;;;;4858712;29;20836;-89
2023/10/27 19:05:28;;;;;;;1391.87;509.83;;;10.30;99.90;;;;;;4858426;29;20696;-88
2023/10/27 19:08:54;;;;;;;1397.03;507.53;;;10.30;99.90;;;;;;4858717;29;20297;-89
2023/10/27 19:12:13;;;;;;;1298.07;410.30;;;10.30;99.90;;;;;;4836284;29;20315;-89
2023/10/27 19:15:37;;;;;;;1394.87;511.47;;;10.30;99.90;;;;;;4822356;29;20284;-91
2023/10/27 19:22:53;;;;;;;;;;;;;;;;;;;;;
2023/10/27 19:26:23;;;;;;;1300.43;413.23;;;10.30;99.90;;;;;;4914536;29;20295;-88
2023/10/27 19:29:57;;;;;;;;;;;;;;;;;;;;;
2023/10/27 19:33:20;;;;;;;1302.87;417.70;;;10.30;99.90;;;;;;4913197;29;20312;-87
2023/10/27 19:36:43;;;;;;;1383.72;507.70;;;10.40;99.90;;;;;;4911600;29;20297;-87
2023/10/27 19:39:41;;;;;;;1380.93;508.57;;;10.20;99.90;;;;;;4914575;29;20130;-86
2023/10/27 19:42:33;;;;;;;1384.47;511.17;;;10.30;99.90;;;;;;4908188;29;20364;-85
2023/10/27 19:46:06;;;;;;;;;;;;;;;;;;;;;
2023/10/27 19:49:33;;;;;;;1291.73;417.30;;;10.20;99.90;;;;;;4914026;29;20833;-85
2023/10/27 19:52:32;;;;;;;1288.47;412.57;;;10.60;99.90;;;;;;4914009;29;20415;-85
2023/10/27 19:56:03;;;;;;;;;;;;;;;;;;;;;
2023/10/27 19:59:42;;;;;;;1384.13;515.87;;;10.60;99.90;;;;;;4952752;29;20423;-90
2023/10/27 20:37:23;;;;;;;1343.40;508.40;;;10.20;99.90;;;;;;5078981;28;20337;-86
2023/10/27 20:40:50;;;;;;;1247.17;409.37;;;10.10;99.90;;;;;;5056705;28;20290;-91
2023/10/27 20:44:10;;;;;;;1254.63;420.30;;;10.10;99.90;;;;;;5075548;28;20677;-86
2023/10/27 20:47:35;;;;;;;1340.30;506.00;;;10.10;99.90;;;;;;5013988;28;20327;-90
2023/10/27 20:51:13;;;;;;;;;;;;;;;;;;;;;
2023/10/27 21:12:11;;;;;;;1322.73;512.37;;;9.90;99.90;;;;;;4969949;28;20313;-87
2023/10/27 21:15:08;;;;;;;1241.30;409.93;;;9.90;99.90;;;;;;4974382;28;20301;-85
2023/10/27 21:18:33;;;;;;;;;;;;;;;;;;;;;
2023/10/27 21:22:06;;;;;;;1238.43;409.90;;;9.90;99.90;;;;;;5013347;28;20281;-85
2023/10/27 21:25:27;;;;;;;;;;;;;;;;;;;;;
2023/10/27 21:28:49;;;;;;;1233.50;410.63;;;9.80;99.90;;;;;;4915821;29;20674;-87
2023/10/27 21:36:23;;;;;;;1228.83;412.10;;;9.80;99.90;;;;;;4975345;28;20273;-87
2023/10/27 21:39:54;;;;;;;;;;;;;;;;;;;;;
2023/10/27 21:43:38;;;;;;;;;;;;;;;;;;;;;
2023/10/27 21:47:13;;;;;;;;;;;;;;;;;;;;;
2023/10/27 21:50:11;;;;;;;1296.33;506.40;;;10.20;99.90;;;;;;4878416;29;20296;-89
2023/10/27 21:53:26;;;;;;;;;;;;;;;;;;;;;
2023/10/27 22:15:37;;;;;;;1290.97;504.23;;;9.90;99.90;;;;;;4981847;28;20339;-91
2023/10/27 22:18:56;;;;;;;1290.57;505.63;;;9.90;99.90;;;;;;4925064;29;20305;-88
2023/10/27 22:22:30;;;;;;;;;;;;;;;;;;;;;
2023/10/27 22:26:06;;;;;;;1287.43;506.30;;;9.90;99.90;;;;;;4953636;29;20345;-90
2023/10/27 22:29:52;;;;;;;;;;;;;;;;;;;;;
2023/10/27 22:33:19;;;;;;;;;;;;;;;;;;;;;
2023/10/27 22:40:46;;;;;;;1211.00;403.57;;;9.90;99.90;;;;;;4912468;29;20785;-89
2023/10/27 22:44:05;;;;;;;1209.35;402.58;;;9.90;99.90;;;;;;4888472;29;20477;-87
2023/10/27 22:47:27;;;;;;;1296.83;509.20;;;9.90;99.90;;;;;;4902204;29;20066;-87
2023/10/27 22:51:00;;;;;;;;;;;;;;;;;;;;;
2023/10/27 22:54:25;;;;;;;1293.63;508.67;;;9.90;99.90;;;;;;4977782;28;20436;-92
2023/10/27 22:57:51;;;;;;;1283.33;507.90;;;9.90;99.90;;;;;;4972114;28;20304;-91
2023/10/27 23:08:42;;;;;;;1189.27;404.07;;;9.90;99.90;;;;;;5031290;28;20295;-86
2023/10/27 23:12:08;;;;;;;;;;;;;;;;;;;;;
2023/10/27 23:15:59;;;;;;;1186.87;398.60;;;9.80;99.90;;;;;;5031480;28;20616;-89
2023/10/27 23:19:14;;;;;;;1265.23;506.33;;;9.80;99.90;;;;;;5028661;28;20428;-87
2023/10/27 23:22:45;;;;;;;;;;;;;;;;;;;;;
2023/10/27 23:26:31;;;;;;;1260.73;507.50;;;9.80;99.90;;;;;;4981396;28;20865;-87
2023/10/27 23:41:05;;;;;;;1181.90;401.73;;;9.90;99.90;;;;;;5008758;28;20287;-90
2023/10/27 23:44:31;;;;;;;1265.67;506.63;;;9.80;99.90;;;;;;5032735;28;20288;-88
2023/10/27 23:48:06;;;;;;;1243.33;502.80;;;9.90;99.90;;;;;;5015778;28;20312;-86
2023/10/27 23:51:39;;;;;;;1176.23;399.17;;;9.90;99.90;;;;;;4975901;28;20791;-89
2023/10/27 23:55:05;;;;;;;1187.00;400.87;;;9.90;99.90;;;;;;4971829;28;20294;-88
2023/10/27 23:58:50;;;;;;;;;;;;;;;;;;;;;
